Sims, Arkansas
Current Conditions -  °F | °C
As of 6:53 PM on Wednesday 17 Dec 2014 (Local Time) from KMWT Reporting Station
Light Rain Light Rain  
Wind Chill: 38°   Ceiling: 7000
Heat Index: 38°   Visibility: 10mi
Dew Point: 35°   Wind: 0mph
Humidity: 89%   Direction: NA
Pressure: 30.2"   Gusts: NA
Location:  34.66°N, 93.69°W
Report Text: KMWT 180053Z AUTO 00000KT 10SM -RA OVC070 03/02 A3020 RMK AO2 RAB53 SLP238 P0000 T00330017
Loading
Personal Weather Stations






























Interactive Weather Map New forecast layout! Learn more

10-Day Weather Forecast

Advertisements
Track Severe Weather on mobile